createdAt,value
2019-02-12T00:01:46.689Z,8.80
2019-02-12T00:03:47.540Z,7.83
2019-02-12T00:05:48.396Z,8.37
2019-02-12T00:07:49.501Z,9.30
2019-02-12T00:09:50.324Z,8.87
2019-02-12T00:11:51.184Z,7.70
2019-02-12T00:13:52.016Z,8.17
2019-02-12T00:15:52.869Z,7.73
2019-02-12T00:17:53.715Z,8.30
2019-02-12T00:19:54.560Z,7.60
2019-02-12T00:21:55.440Z,7.87
2019-02-12T00:23:56.280Z,11.43
2019-02-12T00:25:57.116Z,16.00
2019-02-12T00:27:57.952Z,14.03
2019-02-12T00:29:58.802Z,15.00
2019-02-12T00:31:59.640Z,15.17
2019-02-12T00:34:00.505Z,10.30
2019-02-12T00:36:01.350Z,12.53
2019-02-12T00:38:02.172Z,11.80
2019-02-12T00:40:03.007Z,8.93
2019-02-12T00:42:03.868Z,9.00
2019-02-12T00:44:05.008Z,8.43
2019-02-12T00:46:06.160Z,8.97
2019-02-12T00:48:06.994Z,8.00
2019-02-12T00:50:07.845Z,8.30
2019-02-12T00:52:08.672Z,8.00
2019-02-12T00:54:09.524Z,7.33
2019-02-12T00:56:10.374Z,7.30
2019-02-12T00:58:11.213Z,7.60
2019-02-12T01:00:12.152Z,7.13
2019-02-12T01:02:12.992Z,8.33
2019-02-12T01:04:13.857Z,8.57
2019-02-12T01:06:14.690Z,7.83
2019-02-12T01:08:15.832Z,8.00
2019-02-12T01:10:16.957Z,8.63
2019-02-12T01:12:17.788Z,8.77
2019-02-12T01:14:18.640Z,7.87
2019-02-12T01:16:19.484Z,8.17
2019-02-12T01:18:20.325Z,8.47
2019-02-12T01:20:21.148Z,8.13
2019-02-12T01:22:22.021Z,9.23
2019-02-12T01:24:22.879Z,8.67
2019-02-12T01:26:23.699Z,8.03
2019-02-12T01:28:24.544Z,8.17
2019-02-12T01:30:25.384Z,9.17
2019-02-12T01:32:26.550Z,8.13
2019-02-12T01:34:27.401Z,8.67
2019-02-12T01:36:28.246Z,8.00
2019-02-12T01:38:29.081Z,7.87
2019-02-12T01:40:29.944Z,7.80
2019-02-12T01:42:30.797Z,9.07
2019-02-12T01:44:31.644Z,9.00
2019-02-12T01:46:32.481Z,10.63
2019-02-12T01:48:33.320Z,10.40
2019-02-12T01:50:34.172Z,9.73
2019-02-12T01:52:35.021Z,9.23
2019-02-12T01:54:35.887Z,8.20
2019-02-12T01:56:36.700Z,9.90
2019-02-12T01:58:37.896Z,8.90
2019-02-12T02:00:38.720Z,8.60
2019-02-12T02:02:39.568Z,7.93
2019-02-12T02:04:40.427Z,8.03
2019-02-12T02:06:41.259Z,7.97
2019-02-12T02:08:42.091Z,8.17
2019-02-12T02:10:43.201Z,7.87
2019-02-12T02:12:44.036Z,7.83
2019-02-12T02:14:44.869Z,7.77
2019-02-12T02:16:45.712Z,7.30
2019-02-12T02:18:46.569Z,7.30
2019-02-12T02:20:47.412Z,7.70
2019-02-12T02:22:48.256Z,7.13
2019-02-12T02:24:49.076Z,7.27
2019-02-12T02:26:49.932Z,7.50
2019-02-12T02:28:50.790Z,6.67
2019-02-12T02:30:51.949Z,6.73
2019-02-12T02:32:52.803Z,7.33
2019-02-12T02:34:54.018Z,7.13
2019-02-12T02:36:55.170Z,6.43
2019-02-12T02:38:56.002Z,6.47
2019-02-12T02:40:56.829Z,7.30
2019-02-12T02:42:57.672Z,7.77
2019-02-12T02:44:58.508Z,7.03
2019-02-12T02:46:59.342Z,7.03
2019-02-12T02:49:00.201Z,6.97
2019-02-12T02:51:01.026Z,7.80
2019-02-12T02:53:01.892Z,7.30
2019-02-12T03:42:48.157Z,7.63
2019-02-12T03:44:48.989Z,7.40
2019-02-12T03:46:49.928Z,7.60
2019-02-12T03:48:50.768Z,7.97
2019-02-12T03:50:51.596Z,7.77
2019-02-12T03:52:52.441Z,6.87
2019-02-12T03:54:53.297Z,7.10
2019-02-12T03:56:54.132Z,7.23
2019-02-12T03:58:54.997Z,7.43
2019-02-12T04:00:55.849Z,7.30
2019-02-12T04:02:56.705Z,7.33
2019-02-12T04:04:57.837Z,7.17
2019-02-12T04:06:58.660Z,7.50
2019-02-12T04:08:59.623Z,7.37
2019-02-12T04:11:00.485Z,6.63
2019-02-12T04:13:01.313Z,6.80
2019-02-12T04:15:02.168Z,6.37
2019-02-12T04:17:02.997Z,6.90
2019-02-12T04:19:03.819Z,7.17
2019-02-12T04:21:04.686Z,7.23
2019-02-12T04:23:05.536Z,6.27
2019-02-12T04:25:06.401Z,6.50
2019-02-12T04:27:07.250Z,6.30
2019-02-12T04:29:08.093Z,7.00
2019-02-12T04:31:08.936Z,7.57
2019-02-12T04:33:09.779Z,6.47
2019-02-12T04:35:10.643Z,6.50
2019-02-12T04:37:11.468Z,7.20
2019-02-12T04:39:12.301Z,6.57
2019-02-12T04:41:13.171Z,7.40
2019-02-12T04:43:14.008Z,6.63
2019-02-12T04:45:14.853Z,6.60
2019-02-12T04:47:15.718Z,7.03
2019-02-12T04:49:16.568Z,7.47
2019-02-12T04:51:17.453Z,7.30
2019-02-12T04:53:18.338Z,7.73
2019-02-12T04:55:19.164Z,7.50
2019-02-12T04:57:20.000Z,7.67
2019-02-12T04:59:20.850Z,7.83
2019-02-12T05:01:21.716Z,7.43
2019-02-12T05:03:22.584Z,7.33
2019-02-12T05:05:23.444Z,7.60
2019-02-12T05:07:24.289Z,7.50
2019-02-12T05:09:25.142Z,7.80
2019-02-12T05:11:25.977Z,8.13
2019-02-12T05:13:26.807Z,7.90
2019-02-12T05:15:27.660Z,7.40
2019-02-12T05:17:28.495Z,7.47
2019-02-12T05:19:29.325Z,7.20
2019-02-12T05:21:30.436Z,7.83
2019-02-12T05:23:31.588Z,7.07
2019-02-12T05:25:32.412Z,8.53
2019-02-12T05:27:33.250Z,7.07
2019-02-12T05:29:34.097Z,7.57
2019-02-12T05:31:34.948Z,6.73
2019-02-12T05:33:35.782Z,7.60
2019-02-12T05:35:36.635Z,7.73
2019-02-12T05:37:37.483Z,8.17
2019-02-12T05:39:38.362Z,7.40
2019-02-12T05:41:39.192Z,8.43
2019-02-12T05:43:40.302Z,8.93
2019-02-12T05:45:41.177Z,7.80
2019-02-12T05:47:42.076Z,8.10
2019-02-12T05:49:42.916Z,7.87
2019-02-12T05:51:43.761Z,7.80
2019-02-12T05:53:44.873Z,8.27
2019-02-12T05:55:45.718Z,8.63
2019-02-12T05:57:46.556Z,7.50
2019-02-12T05:59:47.433Z,8.07
2019-02-12T06:01:48.432Z,8.30
2019-02-12T06:03:49.282Z,8.10
2019-02-12T06:05:50.121Z,8.50
2019-02-12T06:07:50.973Z,8.40
2019-02-12T06:09:52.144Z,8.00
2019-02-12T06:11:52.972Z,8.20
2019-02-12T06:13:53.816Z,8.90
2019-02-12T06:15:54.961Z,7.77
2019-02-12T06:17:55.806Z,7.53
2019-02-12T06:19:56.645Z,7.77
2019-02-12T06:21:57.482Z,8.30
2019-02-12T06:23:58.353Z,8.33
2019-02-12T06:25:59.220Z,8.50
2019-02-12T06:28:00.044Z,8.10
2019-02-12T06:30:00.924Z,9.47
2019-02-12T06:32:01.735Z,7.93
2019-02-12T06:34:02.590Z,8.30
2019-02-12T06:36:03.441Z,9.57
2019-02-12T06:38:04.287Z,8.40
2019-02-12T06:40:05.118Z,8.70
2019-02-12T06:42:05.973Z,8.40
2019-02-12T06:44:06.809Z,9.33
2019-02-12T06:46:07.640Z,10.53
2019-02-12T06:48:08.482Z,9.23
2019-02-12T06:50:09.313Z,8.40
2019-02-12T06:52:10.141Z,9.27
2019-02-12T06:54:10.994Z,9.30
2019-02-12T06:56:11.826Z,9.33
2019-02-12T06:58:12.807Z,8.30
2019-02-12T07:00:13.909Z,8.67
2019-02-12T07:02:14.745Z,11.73
2019-02-12T07:04:15.592Z,11.97
2019-02-12T07:06:16.424Z,9.13
2019-02-12T07:08:17.257Z,8.67
2019-02-12T07:10:18.113Z,8.83
2019-02-12T07:12:18.950Z,8.87
2019-02-12T07:14:19.794Z,8.77
2019-02-12T07:16:20.624Z,8.20
2019-02-12T07:18:21.477Z,8.70
2019-02-12T07:20:22.313Z,9.27
2019-02-12T07:22:23.156Z,8.77
2019-02-12T07:24:23.993Z,9.00
2019-02-12T07:26:24.892Z,8.67
2019-02-12T07:28:25.756Z,8.73
2019-02-12T07:30:26.594Z,8.57
2019-02-12T07:32:27.420Z,8.93
2019-02-12T07:34:28.268Z,8.83
2019-02-12T07:36:29.106Z,7.97
2019-02-12T07:38:29.953Z,8.97
2019-02-12T07:40:30.793Z,9.03
2019-02-12T07:42:31.651Z,9.00
2019-02-12T07:44:32.492Z,9.00
2019-02-12T07:46:33.326Z,8.73
2019-02-12T07:48:34.168Z,8.97
2019-02-12T07:50:35.014Z,9.00
2019-02-12T07:52:35.867Z,9.30
2019-02-12T07:54:36.696Z,9.77
2019-02-12T07:56:37.837Z,9.93
2019-02-12T07:58:38.687Z,10.20
2019-02-12T08:00:39.536Z,9.07
2019-02-12T08:02:40.469Z,10.43
2019-02-12T08:04:41.613Z,9.50
2019-02-12T08:06:42.549Z,4.50
2019-02-12T08:08:43.698Z,7.40
2019-02-12T08:10:44.512Z,17.00
2019-02-12T08:12:45.635Z,9.90
2019-02-12T08:14:46.773Z,8.87
2019-02-12T08:16:47.622Z,9.30
2019-02-12T08:18:48.456Z,9.97
2019-02-12T08:20:49.329Z,8.90
2019-02-12T08:22:50.198Z,9.00
2019-02-12T08:24:51.040Z,8.53
2019-02-12T08:26:51.921Z,8.97
2019-02-12T08:28:52.784Z,8.10
2019-02-12T08:30:53.961Z,8.23
2019-02-12T08:32:54.817Z,8.63
2019-02-12T08:34:55.649Z,8.67
2019-02-12T08:36:56.769Z,9.00
2019-02-12T08:38:57.592Z,8.83
2019-02-12T08:40:58.897Z,9.43
2019-02-12T08:42:59.744Z,8.80
2019-02-12T08:45:00.605Z,9.23
2019-02-12T08:47:01.452Z,8.97
2019-02-12T08:49:02.280Z,8.87
2019-02-12T08:51:03.117Z,8.87
2019-02-12T08:53:03.989Z,9.20
2019-02-12T08:55:04.834Z,8.30
2019-02-12T08:57:05.674Z,9.07
2019-02-12T08:59:06.526Z,9.13
2019-02-12T09:01:07.408Z,8.73
2019-02-12T09:03:08.261Z,9.67
2019-02-12T09:05:09.474Z,9.33
2019-02-12T09:07:10.784Z,9.47
2019-02-12T09:09:11.638Z,8.93
2019-02-12T09:11:12.497Z,11.60
2019-02-12T09:13:13.326Z,10.90
2019-02-12T09:15:14.423Z,10.07
2019-02-12T09:17:15.590Z,8.60
2019-02-12T09:19:16.660Z,8.90
2019-02-12T09:21:17.568Z,8.83
2019-02-12T09:23:18.418Z,9.13
2019-02-12T09:25:19.257Z,8.87
2019-02-12T09:27:20.104Z,8.60
2019-02-12T09:29:21.441Z,9.10
2019-02-12T09:31:22.308Z,9.13
2019-02-12T09:33:23.132Z,7.97
2019-02-12T09:35:23.964Z,8.93
2019-02-12T09:37:24.821Z,9.23
2019-02-12T09:39:25.672Z,8.53
2019-02-12T09:41:26.509Z,8.37
2019-02-12T09:43:27.345Z,8.40
2019-02-12T09:45:28.226Z,7.80
2019-02-12T09:47:29.053Z,8.60
2019-02-12T09:49:29.880Z,8.40
2019-02-12T09:51:30.740Z,7.00
2019-02-12T09:53:31.560Z,8.10
2019-02-12T09:55:32.416Z,7.77
2019-02-12T09:57:33.268Z,8.93
2019-02-12T09:59:34.088Z,8.10
2019-02-12T10:01:34.940Z,7.10
2019-02-12T10:03:36.062Z,7.60
2019-02-12T10:05:36.916Z,7.23
2019-02-12T10:07:37.811Z,7.03
2019-02-12T10:09:39.335Z,7.57
2019-02-12T10:11:40.184Z,6.67
2019-02-12T10:13:41.041Z,7.00
2019-02-12T10:15:41.889Z,6.27
2019-02-12T10:17:42.738Z,6.23
2019-02-12T10:19:43.847Z,6.17
2019-02-12T10:21:44.684Z,6.40
2019-02-12T10:23:45.832Z,5.73
2019-02-12T10:25:46.693Z,6.10
2019-02-12T10:27:47.549Z,5.87
2019-02-12T10:29:48.385Z,6.27
2019-02-12T10:31:49.212Z,5.47
2019-02-12T10:33:50.071Z,5.67
2019-02-12T10:35:50.922Z,5.17
2019-02-12T10:37:51.753Z,4.83
2019-02-12T10:39:52.612Z,6.40
2019-02-12T10:41:53.731Z,6.13
2019-02-12T10:43:54.588Z,5.93
2019-02-12T10:45:55.422Z,5.83
2019-02-12T10:47:56.273Z,5.23
2019-02-12T10:49:57.122Z,4.77
2019-02-12T10:51:57.961Z,4.97
2019-02-12T10:53:58.817Z,5.33
2019-02-12T10:55:59.641Z,5.53
2019-02-12T10:58:00.471Z,4.67
2019-02-12T11:00:01.312Z,4.63
2019-02-12T11:02:02.131Z,4.30
2019-02-12T11:04:02.969Z,4.10
2019-02-12T11:06:03.809Z,4.10
2019-02-12T11:08:04.648Z,3.57
2019-02-12T11:10:05.597Z,4.67
2019-02-12T11:12:06.432Z,3.90
2019-02-12T11:14:07.596Z,3.93
2019-02-12T11:16:08.717Z,4.37
2019-02-12T11:18:09.568Z,3.97
2019-02-12T11:20:10.412Z,3.90
2019-02-12T11:22:11.565Z,4.00
2019-02-12T11:24:12.399Z,3.73
2019-02-12T11:26:13.231Z,3.80
2019-02-12T11:28:14.360Z,4.00
2019-02-12T11:30:15.206Z,4.30
2019-02-12T11:32:16.068Z,4.33
2019-02-12T11:34:16.898Z,4.13
2019-02-12T11:36:18.085Z,4.20
2019-02-12T11:38:18.945Z,3.80
2019-02-12T11:40:19.776Z,4.17
2019-02-12T11:42:20.914Z,3.90
2019-02-12T11:44:21.756Z,4.20
2019-02-12T11:46:22.996Z,4.40
2019-02-12T11:48:23.824Z,5.70
2019-02-12T11:50:24.652Z,5.70
2019-02-12T11:52:25.520Z,4.20
2019-02-12T11:54:26.685Z,4.50
2019-02-12T11:56:27.704Z,4.10
2019-02-12T11:58:28.643Z,4.30
2019-02-12T12:00:35.080Z,4.37
2019-02-12T12:02:41.837Z,4.30
2019-02-12T12:04:38.852Z,3.80
2019-02-12T12:06:39.704Z,4.47
2019-02-12T12:08:40.548Z,4.20
2019-02-12T12:10:41.477Z,4.00
2019-02-12T12:12:42.423Z,4.57
2019-02-12T12:14:43.268Z,4.37
2019-02-12T12:16:44.111Z,4.93
2019-02-12T12:18:45.300Z,5.43
2019-02-12T12:20:46.166Z,5.20
2019-02-12T12:22:46.984Z,5.80
2019-02-12T12:24:51.531Z,4.53
2019-02-12T12:26:50.869Z,4.80
2019-02-12T12:28:51.730Z,5.20
2019-02-12T12:30:52.665Z,5.50
2019-02-12T12:32:53.492Z,5.00
2019-02-12T12:34:54.356Z,4.87
2019-02-12T12:36:55.185Z,4.60
2019-02-12T12:38:56.017Z,4.43
2019-02-12T12:40:56.928Z,4.57
2019-02-12T12:42:57.809Z,5.20
2019-02-12T12:44:58.669Z,4.93
2019-02-12T12:46:59.512Z,5.17
2019-02-12T12:49:00.349Z,5.17
2019-02-12T12:51:01.189Z,4.97
2019-02-12T12:53:02.043Z,4.93
2019-02-12T12:55:03.213Z,4.77
2019-02-12T12:57:04.416Z,4.80
2019-02-12T12:59:05.260Z,4.53
2019-02-12T13:01:06.094Z,4.30
2019-02-12T13:03:07.041Z,4.23
2019-02-12T13:05:08.240Z,4.50
2019-02-12T13:07:09.105Z,3.97
2019-02-12T13:09:09.952Z,3.67
2019-02-12T13:11:11.170Z,4.37
2019-02-12T13:13:12.016Z,4.27
2019-02-12T13:15:13.126Z,3.60
2019-02-12T13:17:14.292Z,4.10
2019-02-12T13:19:15.144Z,3.80
2019-02-12T13:21:16.005Z,3.80
2019-02-12T13:23:17.177Z,3.73
2019-02-12T13:25:18.031Z,4.10
2019-02-12T13:27:18.871Z,4.03
2019-02-12T13:29:19.696Z,4.00
2019-02-12T13:31:20.542Z,4.07
2019-02-12T13:33:21.391Z,4.07
2019-02-12T13:35:22.253Z,3.63
2019-02-12T13:37:23.096Z,3.93
2019-02-12T13:39:24.884Z,4.00
2019-02-12T13:41:25.766Z,4.13
2019-02-12T13:43:26.624Z,4.07
2019-02-12T13:45:27.454Z,4.10
2019-02-12T13:47:28.310Z,4.10
2019-02-12T13:49:29.153Z,4.00
2019-02-12T13:51:30.288Z,4.87
2019-02-12T13:53:31.405Z,4.20
2019-02-12T13:55:32.240Z,3.80
2019-02-12T13:57:33.097Z,3.90
2019-02-12T13:59:34.216Z,4.30
2019-02-12T14:01:35.372Z,4.53
2019-02-12T14:03:36.276Z,4.30
2019-02-12T14:05:37.324Z,3.90
2019-02-12T14:07:38.326Z,3.63
2019-02-12T14:09:39.508Z,4.30
2019-02-12T14:11:40.345Z,3.90
2019-02-12T14:13:41.196Z,4.00
2019-02-12T14:15:42.037Z,3.80
2019-02-12T14:17:42.860Z,3.80
2019-02-12T14:19:43.733Z,3.80
2019-02-12T14:21:44.616Z,4.23
2019-02-12T14:23:45.452Z,3.77
2019-02-12T14:25:46.296Z,3.30
2019-02-12T14:27:47.145Z,4.03
2019-02-12T14:29:48.785Z,3.63
2019-02-12T14:31:53.004Z,3.70
2019-02-12T14:33:52.500Z,3.60
2019-02-12T14:35:53.361Z,3.53
2019-02-12T14:37:54.263Z,3.30
2019-02-12T14:39:55.136Z,3.40
2019-02-12T14:41:56.040Z,3.20
2019-02-12T14:43:56.877Z,3.47
2019-02-12T14:45:57.730Z,3.70
2019-02-12T14:47:58.585Z,3.70
2019-02-12T14:49:59.433Z,3.30
2019-02-12T14:52:00.881Z,3.20
2019-02-12T14:54:01.824Z,3.30
2019-02-12T14:56:10.956Z,3.83
2019-02-12T14:58:05.486Z,3.33
2019-02-12T15:00:06.400Z,3.60
2019-02-12T15:02:07.257Z,3.60
2019-02-12T15:04:08.204Z,3.77
2019-02-12T15:06:09.489Z,3.73
2019-02-12T15:08:10.340Z,3.50
2019-02-12T15:10:11.204Z,3.80
2019-02-12T15:12:12.044Z,3.50
2019-02-12T15:14:12.865Z,3.40
2019-02-12T15:16:13.720Z,3.27
2019-02-12T15:18:14.560Z,3.57
2019-02-12T15:20:15.416Z,3.30
2019-02-12T15:22:16.270Z,3.57
2019-02-12T15:24:17.144Z,3.47
2019-02-12T15:26:17.965Z,3.37
2019-02-12T15:28:18.830Z,3.93
2019-02-12T15:30:19.663Z,3.57
2019-02-12T15:32:20.582Z,3.53
2019-02-12T15:34:21.513Z,3.53
2019-02-12T15:36:22.632Z,3.13
2019-02-12T15:38:23.745Z,3.53
2019-02-12T15:40:24.584Z,3.50
2019-02-12T15:42:25.449Z,3.67
2019-02-12T15:44:26.289Z,3.40
2019-02-12T15:46:27.129Z,3.43
2019-02-12T15:48:27.977Z,3.10
2019-02-12T15:50:28.816Z,3.37
2019-02-12T15:52:29.673Z,3.27
2019-02-12T15:54:30.513Z,3.60
2019-02-12T15:56:31.340Z,3.50
2019-02-12T15:58:32.200Z,3.70
2019-02-12T16:00:33.317Z,3.70
2019-02-12T16:02:35.897Z,3.80
2019-02-12T16:04:36.912Z,4.10
2019-02-12T16:06:37.764Z,3.60
2019-02-12T16:08:38.600Z,3.90
2019-02-12T16:10:41.822Z,4.23
2019-02-12T16:12:42.485Z,3.77
2019-02-12T16:14:44.489Z,3.60
2019-02-12T16:16:45.532Z,4.10
2019-02-12T16:18:47.840Z,4.37
2019-02-12T16:20:48.865Z,3.97
2019-02-12T16:22:49.960Z,4.10
2019-02-12T16:24:50.812Z,6.10
2019-02-12T16:26:51.768Z,7.70
2019-02-12T16:28:52.603Z,6.17
2019-02-12T16:30:53.428Z,5.27
2019-02-12T16:32:54.281Z,5.70
2019-02-12T16:34:55.187Z,5.77
2019-02-12T16:36:56.624Z,5.00
2019-02-12T16:38:57.774Z,5.53
2019-02-12T16:40:58.588Z,9.00
2019-02-12T16:42:59.743Z,6.43
2019-02-12T16:45:00.579Z,5.20
2019-02-12T16:47:01.994Z,4.60
2019-02-12T16:49:03.009Z,5.10
2019-02-12T16:51:03.829Z,5.33
2019-02-12T16:53:04.686Z,4.87
2019-02-12T16:55:05.521Z,6.37
2019-02-12T16:57:06.366Z,5.20
2019-02-12T16:59:07.197Z,4.33
2019-02-12T17:01:08.036Z,4.80
2019-02-12T17:03:09.193Z,5.87
2019-02-12T17:05:10.049Z,5.17
2019-02-12T17:07:10.870Z,5.10
2019-02-12T17:09:12.001Z,5.13
2019-02-12T17:11:12.840Z,5.00
2019-02-12T17:13:13.673Z,4.73
2019-02-12T17:15:14.528Z,4.67
2019-02-12T17:17:15.377Z,4.70
2019-02-12T17:19:16.224Z,4.80
2019-02-12T17:21:17.272Z,5.13
2019-02-12T17:23:18.123Z,4.87
2019-02-12T17:25:18.965Z,5.10
2019-02-12T17:27:19.814Z,5.03
2019-02-12T17:29:20.648Z,5.17
2019-02-12T17:31:21.782Z,5.30
2019-02-12T17:33:22.615Z,5.77
2019-02-12T17:35:23.445Z,6.00
2019-02-12T17:37:24.299Z,5.80
2019-02-12T17:39:25.228Z,5.60
2019-02-12T17:41:26.081Z,6.60
2019-02-12T17:43:26.911Z,6.90
2019-02-12T17:45:27.771Z,6.20
2019-02-12T17:47:28.934Z,5.80
2019-02-12T17:49:29.775Z,5.93
2019-02-12T17:51:30.612Z,5.40
2019-02-12T17:53:31.453Z,6.40
2019-02-12T17:55:32.308Z,5.60
2019-02-12T17:57:33.481Z,6.00
2019-02-12T17:59:34.461Z,5.73
2019-02-12T18:01:35.320Z,6.10
2019-02-12T18:03:36.168Z,6.27
2019-02-12T18:05:37.028Z,6.53
2019-02-12T18:07:38.215Z,7.67
2019-02-12T18:09:39.113Z,7.17
2019-02-12T18:11:39.966Z,7.10
2019-02-12T18:13:40.829Z,6.67
2019-02-12T18:15:41.669Z,5.80
2019-02-12T18:17:42.633Z,5.40
2019-02-12T18:19:43.538Z,5.20
2019-02-12T18:21:44.401Z,5.33
2019-02-12T18:23:45.289Z,5.50
2019-02-12T18:25:46.128Z,5.70
2019-02-12T18:27:47.084Z,6.80
2019-02-12T18:29:47.920Z,5.80
2019-02-12T18:31:49.008Z,5.97
2019-02-12T18:33:49.858Z,6.00
2019-02-12T18:35:50.690Z,6.10
2019-02-12T18:37:51.541Z,6.43
2019-02-12T18:39:52.397Z,6.90
2019-02-12T18:41:53.224Z,7.13
2019-02-12T18:43:54.093Z,8.70
2019-02-12T18:45:54.969Z,9.10
2019-02-12T18:47:55.820Z,8.97
2019-02-12T18:49:56.920Z,8.23
2019-02-12T18:51:57.796Z,8.37
2019-02-12T18:53:58.757Z,9.90
2019-02-12T18:55:59.639Z,9.40
2019-02-12T18:58:00.480Z,8.57
2019-02-12T19:00:01.457Z,9.27
2019-02-12T19:02:02.316Z,7.83
2019-02-12T19:04:03.172Z,9.00
2019-02-12T19:06:04.071Z,9.37
2019-02-12T19:08:04.913Z,9.23
2019-02-12T19:10:05.758Z,8.97
2019-02-12T19:12:06.605Z,7.87
2019-02-12T19:14:07.442Z,8.40
2019-02-12T19:16:08.297Z,8.50
2019-02-12T19:18:09.406Z,8.93
2019-02-12T19:20:10.237Z,8.57
2019-02-12T19:22:11.087Z,9.20
2019-02-12T19:24:11.921Z,8.50
2019-02-12T19:26:12.772Z,8.47
2019-02-12T19:28:13.632Z,7.97
2019-02-12T19:30:16.172Z,7.43
2019-02-12T19:32:17.241Z,7.30
2019-02-12T19:34:18.097Z,7.27
2019-02-12T19:36:19.258Z,7.37
2019-02-12T19:38:20.090Z,7.40
2019-02-12T19:40:20.949Z,7.00
2019-02-12T19:42:21.776Z,8.97
2019-02-12T19:44:22.613Z,11.90
2019-02-12T19:46:23.464Z,11.00
2019-02-12T19:48:24.376Z,10.27
2019-02-12T19:50:25.229Z,10.63
2019-02-12T19:52:26.065Z,9.93
2019-02-12T19:54:26.904Z,8.87
2019-02-12T19:56:27.769Z,8.80
2019-02-12T19:58:28.609Z,8.30
2019-02-12T20:00:29.457Z,8.33
2019-02-12T20:02:30.300Z,7.70
2019-02-12T20:04:31.440Z,7.73
2019-02-12T20:06:32.301Z,7.43
2019-02-12T20:08:33.160Z,7.67
2019-02-12T20:10:34.336Z,7.10
2019-02-12T20:12:35.192Z,7.70
2019-02-12T20:14:37.911Z,8.03
2019-02-12T20:16:39.287Z,7.43
2019-02-12T20:18:40.135Z,7.33
2019-02-12T20:20:40.970Z,6.87
2019-02-12T20:22:42.101Z,7.50
2019-02-12T20:24:42.955Z,7.20
2019-02-12T20:26:43.789Z,7.40
2019-02-12T20:28:44.616Z,7.03
2019-02-12T20:30:45.564Z,6.90
2019-02-12T20:32:46.514Z,7.70
2019-02-12T20:34:47.342Z,7.50
2019-02-12T20:36:48.559Z,7.50
2019-02-12T20:38:49.398Z,7.43
2019-02-12T20:40:50.262Z,7.53
2019-02-12T20:42:51.099Z,8.27
2019-02-12T20:44:51.948Z,8.80
2019-02-12T20:46:52.801Z,8.47
2019-02-12T20:48:53.644Z,8.53
2019-02-12T20:50:54.488Z,9.03
2019-02-12T20:52:55.349Z,8.47
2019-02-12T20:54:56.208Z,8.53
2019-02-12T20:56:57.060Z,9.57
2019-02-12T20:58:57.920Z,10.10
2019-02-12T21:00:58.755Z,10.80
2019-02-12T21:02:59.624Z,8.80
2019-02-12T21:05:00.511Z,8.70
2019-02-12T21:07:01.344Z,8.27
2019-02-12T21:09:02.341Z,6.83
2019-02-12T21:11:03.257Z,8.40
2019-02-12T21:13:04.227Z,6.90
2019-02-12T21:15:05.401Z,6.73
2019-02-12T21:17:06.279Z,6.90
2019-02-12T21:19:07.417Z,7.47
2019-02-12T21:21:08.264Z,7.30
2019-02-12T21:23:09.120Z,7.17
2019-02-12T21:25:09.965Z,7.47
2019-02-12T21:27:11.130Z,7.87
2019-02-12T21:29:12.854Z,7.20
2019-02-12T21:31:13.784Z,7.20
2019-02-12T21:33:14.653Z,7.00
2019-02-12T21:35:15.525Z,6.57
2019-02-12T21:37:20.722Z,7.00
2019-02-12T21:39:22.955Z,7.40
2019-02-12T21:41:23.824Z,7.50
2019-02-12T21:43:24.680Z,7.37
2019-02-12T21:45:25.747Z,7.33
2019-02-12T21:47:26.589Z,7.20
2019-02-12T21:49:27.424Z,6.90
2019-02-12T21:51:28.363Z,7.70
2019-02-12T21:53:29.236Z,7.53
2019-02-12T21:55:30.073Z,7.30
2019-02-12T21:57:32.099Z,7.90
2019-02-12T21:59:33.151Z,8.27
2019-02-12T22:01:33.987Z,7.47
2019-02-12T22:03:34.841Z,7.80
2019-02-12T22:05:35.693Z,7.57
2019-02-12T22:07:36.888Z,7.77
2019-02-12T22:09:37.720Z,7.53
2019-02-12T22:11:38.881Z,7.93
2019-02-12T22:13:39.737Z,7.67
2019-02-12T22:15:40.677Z,7.60
2019-02-12T22:17:41.636Z,7.90
2019-02-12T22:19:42.468Z,8.07
2019-02-12T22:21:43.388Z,9.70
2019-02-12T22:23:44.297Z,9.43
2019-02-12T22:25:45.228Z,8.50
2019-02-12T22:27:46.093Z,8.30
2019-02-12T22:29:47.124Z,8.27
2019-02-12T22:31:48.045Z,8.00
2019-02-12T22:33:49.473Z,7.90
2019-02-12T22:35:50.357Z,7.40
2019-02-12T22:37:51.269Z,7.33
2019-02-12T22:39:52.196Z,6.93
2019-02-12T22:41:53.066Z,6.90
2019-02-12T22:43:53.905Z,7.63
2019-02-12T22:45:54.732Z,6.87
2019-02-12T22:47:55.582Z,7.33
2019-02-12T22:49:56.404Z,7.17
2019-02-12T22:51:58.326Z,6.70
2019-02-12T22:53:59.312Z,7.03
2019-02-12T22:56:00.469Z,7.37
2019-02-12T22:58:01.365Z,6.83
2019-02-12T23:00:02.270Z,7.13
2019-02-12T23:02:03.189Z,6.63
2019-02-12T23:04:04.049Z,7.47
2019-02-12T23:06:05.084Z,7.13
2019-02-12T23:08:05.918Z,7.70
2019-02-12T23:10:07.136Z,6.93
2019-02-12T23:12:07.981Z,7.00
2019-02-12T23:14:08.844Z,7.20
2019-02-12T23:16:09.672Z,7.53
2019-02-12T23:18:10.533Z,7.37
2019-02-12T23:20:11.727Z,8.20
2019-02-12T23:22:12.562Z,7.90
2019-02-12T23:24:13.380Z,7.63
2019-02-12T23:26:14.517Z,7.70
2019-02-12T23:28:15.340Z,7.80
2019-02-12T23:30:16.484Z,7.63
2019-02-12T23:32:17.633Z,7.43
2019-02-12T23:34:18.488Z,7.63
2019-02-12T23:36:19.314Z,7.70
2019-02-12T23:38:20.183Z,7.77
2019-02-12T23:40:21.015Z,8.27
2019-02-12T23:42:21.856Z,8.23
2019-02-12T23:44:22.689Z,8.00
2019-02-12T23:46:23.521Z,7.17
2019-02-12T23:48:24.353Z,7.43
2019-02-12T23:50:25.200Z,8.27
2019-02-12T23:52:26.152Z,7.57
2019-02-12T23:54:26.991Z,7.30
2019-02-12T23:56:27.844Z,7.20
2019-02-12T23:58:28.684Z,8.13
